createdAt,value
2017-09-16T00:01:59.680Z,14.30
2017-09-16T00:04:30.769Z,18.20
2017-09-16T00:07:02.402Z,16.37
2017-09-16T00:09:33.927Z,16.23
2017-09-16T00:12:05.002Z,14.93
2017-09-16T00:14:35.907Z,12.90
2017-09-16T00:17:07.216Z,14.10
2017-09-16T00:19:39.066Z,18.27
2017-09-16T00:22:09.865Z,16.80
2017-09-16T00:24:41.096Z,15.77
2017-09-16T00:27:12.910Z,15.50
2017-09-16T00:29:44.572Z,18.57
2017-09-16T00:32:16.138Z,18.17
2017-09-16T00:34:47.577Z,18.10
2017-09-16T00:37:21.668Z,17.57
2017-09-16T00:39:56.332Z,15.13
2017-09-16T00:42:28.758Z,16.43
2017-09-16T00:44:59.835Z,17.93
2017-09-16T00:47:31.302Z,18.27
2017-09-16T00:50:04.120Z,18.57
2017-09-16T00:52:35.160Z,14.50
2017-09-16T00:55:06.651Z,14.30
2017-09-16T00:57:38.476Z,15.60
2017-09-16T01:00:09.618Z,17.73
2017-09-16T01:02:40.396Z,18.57
2017-09-16T01:05:14.817Z,16.07
2017-09-16T01:07:45.958Z,15.10
2017-09-16T01:10:16.929Z,16.20
2017-09-16T01:12:48.571Z,16.37
2017-09-16T01:15:21.551Z,15.37
2017-09-16T01:17:54.130Z,18.10
2017-09-16T01:20:29.985Z,16.57
2017-09-16T01:23:01.382Z,17.30
2017-09-16T01:25:33.309Z,20.20
2017-09-16T01:28:05.186Z,19.27
2017-09-16T01:30:36.911Z,15.80
2017-09-16T01:33:09.502Z,17.20
2017-09-16T01:35:41.572Z,20.13
2017-09-16T01:38:12.622Z,17.80
2017-09-16T01:40:44.156Z,19.90
2017-09-16T01:43:16.678Z,15.97
2017-09-16T01:45:47.252Z,18.63
2017-09-16T01:48:18.561Z,15.43
2017-09-16T01:50:50.254Z,18.00
2017-09-16T01:53:20.910Z,16.50
2017-09-16T01:55:52.715Z,17.43
2017-09-16T01:58:27.476Z,17.10
2017-09-16T02:00:58.976Z,15.60
2017-09-16T02:03:30.512Z,18.20
2017-09-16T02:06:07.388Z,17.50
2017-09-16T02:08:42.204Z,19.03
2017-09-16T02:11:13.684Z,18.37
2017-09-16T02:13:44.906Z,16.43
2017-09-16T02:16:16.864Z,18.83
2017-09-16T02:18:47.907Z,16.87
2017-09-16T02:21:19.920Z,18.47
2017-09-16T02:23:51.444Z,19.37
2017-09-16T02:26:22.742Z,17.10
2017-09-16T02:28:54.910Z,18.40
2017-09-16T02:31:26.805Z,19.23
2017-09-16T02:33:58.701Z,21.67
2017-09-16T02:36:36.724Z,18.37
2017-09-16T02:39:09.550Z,18.97
2017-09-16T02:41:42.994Z,19.27
2017-09-16T02:44:14.103Z,19.00
2017-09-16T02:46:44.988Z,20.63
2017-09-16T02:49:16.355Z,18.40
2017-09-16T02:51:47.732Z,19.70
2017-09-16T02:54:18.768Z,19.40
2017-09-16T02:56:50.395Z,19.27
2017-09-16T02:59:22.165Z,16.93
2017-09-16T03:01:54.976Z,19.40
2017-09-16T03:04:26.495Z,19.00
2017-09-16T03:06:59.303Z,20.27
2017-09-16T03:09:30.354Z,17.63
2017-09-16T03:12:02.006Z,18.70
2017-09-16T03:14:33.500Z,20.20
2017-09-16T03:17:06.464Z,20.20
2017-09-16T03:19:38.231Z,17.90
2017-09-16T03:22:09.724Z,19.20
2017-09-16T03:24:43.780Z,20.67
2017-09-16T03:27:16.361Z,19.37
2017-09-16T03:29:47.456Z,19.43
2017-09-16T03:32:18.791Z,18.50
2017-09-16T03:34:53.980Z,19.10
2017-09-16T03:37:25.497Z,16.97
2017-09-16T03:39:56.525Z,19.60
2017-09-16T03:42:27.694Z,18.80
2017-09-16T03:45:00.962Z,19.77
2017-09-16T03:47:33.500Z,19.40
2017-09-16T03:50:04.263Z,21.57
2017-09-16T03:52:37.571Z,20.33
2017-09-16T03:55:10.012Z,20.87
2017-09-16T03:57:41.471Z,22.33
2017-09-16T04:00:11.986Z,21.27
2017-09-16T04:02:51.850Z,19.07
2017-09-16T04:05:23.091Z,20.87
2017-09-16T04:07:54.315Z,17.50
2017-09-16T04:10:26.688Z,19.50
2017-09-16T04:12:58.549Z,18.77
2017-09-16T04:15:30.695Z,18.80
2017-09-16T04:18:02.572Z,19.60
2017-09-16T04:20:33.724Z,19.40
2017-09-16T04:23:05.471Z,21.10
2017-09-16T04:25:37.951Z,15.90
2017-09-16T04:28:09.306Z,19.17
2017-09-16T04:30:40.073Z,17.47
2017-09-16T04:33:11.827Z,18.90
2017-09-16T04:35:42.906Z,19.03
2017-09-16T04:38:14.803Z,19.13
2017-09-16T04:40:46.982Z,20.40
2017-09-16T04:43:18.121Z,18.63
2017-09-16T04:45:49.390Z,20.23
2017-09-16T04:48:21.027Z,19.23
2017-09-16T04:50:52.060Z,20.73
2017-09-16T04:53:24.250Z,18.40
2017-09-16T04:55:58.150Z,18.07
2017-09-16T04:58:31.925Z,18.20
2017-09-16T05:01:47.027Z,19.43
2017-09-16T05:04:18.940Z,19.57
2017-09-16T05:06:53.590Z,18.90
2017-09-16T05:09:26.297Z,20.57
2017-09-16T05:11:57.177Z,18.93
2017-09-16T05:14:29.003Z,18.40
2017-09-16T05:17:10.100Z,15.40
2017-09-16T05:19:49.498Z,17.10
2017-09-16T05:22:25.538Z,19.07
2017-09-16T05:25:01.113Z,17.80
2017-09-16T05:27:42.573Z,18.93
2017-09-16T05:30:14.476Z,19.37
2017-09-16T05:32:52.809Z,18.30
2017-09-16T05:35:27.099Z,16.97
2017-09-16T05:37:58.624Z,18.20
2017-09-16T05:40:30.294Z,19.63
2017-09-16T05:43:00.836Z,19.97
2017-09-16T05:45:32.104Z,20.50
2017-09-16T05:48:03.725Z,20.00
2017-09-16T05:50:35.586Z,16.97
2017-09-16T05:53:06.732Z,19.90
2017-09-16T05:55:38.600Z,19.97
2017-09-16T05:58:09.838Z,18.00
2017-09-16T06:00:41.700Z,18.33
2017-09-16T06:03:14.135Z,19.10
2017-09-16T06:05:46.134Z,18.90
2017-09-16T06:08:17.907Z,20.67
2017-09-16T06:10:49.419Z,19.30
2017-09-16T06:13:21.677Z,21.50
2017-09-16T06:15:52.644Z,19.07
2017-09-16T06:18:24.944Z,17.60
2017-09-16T06:20:56.699Z,18.20
2017-09-16T06:23:33.898Z,20.40
2017-09-16T06:26:05.362Z,19.60
2017-09-16T06:28:39.147Z,20.40
2017-09-16T06:31:10.735Z,20.60
2017-09-16T06:33:42.324Z,20.97
2017-09-16T06:36:15.023Z,19.70
2017-09-16T06:38:46.388Z,22.47
2017-09-16T06:41:17.899Z,22.27
2017-09-16T06:43:49.970Z,20.37
2017-09-16T06:46:25.668Z,21.80
2017-09-16T06:48:56.851Z,24.67
2017-09-16T06:51:28.294Z,23.80
2017-09-16T06:53:59.925Z,23.00
2017-09-16T06:56:31.696Z,26.03
2017-09-16T06:59:06.760Z,24.87
2017-09-16T07:01:38.692Z,23.97
2017-09-16T07:04:09.272Z,25.23
2017-09-16T07:06:41.468Z,24.13
2017-09-16T07:09:12.700Z,25.67
2017-09-16T07:11:46.288Z,25.10
2017-09-16T07:14:18.249Z,25.80
2017-09-16T07:16:49.996Z,27.77
2017-09-16T07:19:21.262Z,27.83
2017-09-16T07:21:52.758Z,27.10
2017-09-16T07:24:23.804Z,28.43
2017-09-16T07:26:54.508Z,26.33
2017-09-16T07:29:28.035Z,27.03
2017-09-16T07:31:59.023Z,28.00
2017-09-16T07:34:30.504Z,27.00
2017-09-16T07:37:02.252Z,25.30
2017-09-16T07:39:34.420Z,28.23
2017-09-16T07:42:05.405Z,28.10
2017-09-16T07:44:37.632Z,28.30
2017-09-16T07:47:10.373Z,27.40
2017-09-16T07:49:41.091Z,26.33
2017-09-16T07:52:11.760Z,26.77
2017-09-16T07:54:43.425Z,26.00
2017-09-16T07:57:14.921Z,28.73
2017-09-16T07:59:46.588Z,26.10
2017-09-16T08:02:17.545Z,28.00
2017-09-16T08:04:48.839Z,28.77
2017-09-16T08:07:20.307Z,28.90
2017-09-16T08:09:51.483Z,28.60
2017-09-16T08:12:23.424Z,29.70
2017-09-16T08:14:54.853Z,29.30
2017-09-16T08:17:26.527Z,27.17
2017-09-16T08:19:59.551Z,28.17
2017-09-16T08:22:30.315Z,28.33
2017-09-16T08:25:00.854Z,26.20
2017-09-16T08:27:32.177Z,26.10
2017-09-16T08:30:03.599Z,28.50
2017-09-16T08:32:35.080Z,27.77
2017-09-16T08:35:06.718Z,24.83
2017-09-16T08:37:38.158Z,27.13
2017-09-16T08:40:09.752Z,25.17
2017-09-16T08:42:40.304Z,22.80
2017-09-16T08:45:10.892Z,24.03
2017-09-16T08:47:41.454Z,22.40
2017-09-16T08:50:12.066Z,22.23
2017-09-16T08:52:43.037Z,26.53
2017-09-16T08:55:13.609Z,24.70
2017-09-16T08:57:44.182Z,22.60
2017-09-16T09:00:14.722Z,21.67
2017-09-16T09:02:45.757Z,24.07
2017-09-16T09:05:16.640Z,23.63
2017-09-16T09:07:48.814Z,24.57
2017-09-16T09:10:20.429Z,25.47
2017-09-16T09:12:51.012Z,21.93
2017-09-16T09:15:22.124Z,26.60
2017-09-16T09:17:52.867Z,23.30
2017-09-16T09:20:23.543Z,23.00
2017-09-16T09:22:54.032Z,21.63
2017-09-16T09:25:24.840Z,22.67
2017-09-16T09:27:55.326Z,22.00
2017-09-16T09:30:26.197Z,22.43
2017-09-16T09:32:56.851Z,22.37
2017-09-16T09:35:27.334Z,20.80
2017-09-16T09:37:58.043Z,23.10
2017-09-16T09:40:28.979Z,20.73
2017-09-16T09:43:00.189Z,20.47
2017-09-16T09:45:30.766Z,19.40
2017-09-16T09:48:01.953Z,18.57
2017-09-16T09:50:32.482Z,18.90
2017-09-16T09:53:02.999Z,19.60
2017-09-16T09:55:33.536Z,17.80
2017-09-16T09:58:04.141Z,18.10
2017-09-16T10:00:35.420Z,19.80
2017-09-16T10:03:06.398Z,17.50
2017-09-16T10:05:37.321Z,18.27
2017-09-16T10:08:08.483Z,20.00
2017-09-16T10:10:39.323Z,20.70
2017-09-16T10:13:10.343Z,20.73
2017-09-16T10:15:40.991Z,19.70
2017-09-16T10:18:12.675Z,19.50
2017-09-16T10:20:43.369Z,16.87
2017-09-16T10:23:14.618Z,17.17
2017-09-16T10:25:47.670Z,17.00
2017-09-16T10:28:18.444Z,17.80
2017-09-16T10:30:49.454Z,15.27
2017-09-16T10:33:20.730Z,15.17
2017-09-16T10:35:51.141Z,15.90
2017-09-16T10:38:22.921Z,13.90
2017-09-16T10:40:55.187Z,15.13
2017-09-16T10:43:26.490Z,15.63
2017-09-16T10:45:57.123Z,15.80
2017-09-16T10:48:27.822Z,14.30
2017-09-16T10:50:58.396Z,11.23
2017-09-16T10:53:28.914Z,10.80
2017-09-16T10:55:59.659Z,11.10
2017-09-16T10:58:30.075Z,11.20
2017-09-16T11:01:00.951Z,11.23
2017-09-16T11:03:31.384Z,11.40
2017-09-16T11:06:06.473Z,11.63
2017-09-16T11:08:46.857Z,12.17
2017-09-16T11:11:26.641Z,11.10
2017-09-16T11:14:02.448Z,11.67
2017-09-16T11:16:34.286Z,11.70
2017-09-16T11:19:05.037Z,11.27
2017-09-16T11:21:35.636Z,11.40
2017-09-16T11:24:06.674Z,10.77
2017-09-16T11:26:39.166Z,8.87
2017-09-16T11:29:09.665Z,10.63
2017-09-16T11:31:40.159Z,10.53
2017-09-16T11:34:14.669Z,9.37
2017-09-16T11:36:45.258Z,9.77
2017-09-16T11:39:15.822Z,10.53
2017-09-16T11:41:46.349Z,8.60
2017-09-16T11:44:17.115Z,9.43
2017-09-16T11:46:47.861Z,8.93
2017-09-16T11:49:18.729Z,8.50
2017-09-16T11:51:49.195Z,9.93
2017-09-16T11:54:20.474Z,7.10
2017-09-16T11:56:50.936Z,6.20
2017-09-16T11:59:21.382Z,7.10
2017-09-16T12:01:52.557Z,6.67
2017-09-16T12:04:23.992Z,7.23
2017-09-16T12:06:54.666Z,7.70
2017-09-16T12:09:25.922Z,7.37
2017-09-16T12:11:56.849Z,7.60
2017-09-16T12:14:27.552Z,7.20
2017-09-16T12:16:58.651Z,8.33
2017-09-16T12:19:29.335Z,7.20
2017-09-16T12:21:59.878Z,7.87
2017-09-16T12:24:30.274Z,8.90
2017-09-16T12:27:00.851Z,10.20
2017-09-16T12:29:31.442Z,8.30
2017-09-16T12:32:02.423Z,12.50
2017-09-16T12:34:32.894Z,10.60
2017-09-16T12:37:03.451Z,12.70
2017-09-16T12:39:34.540Z,13.00
2017-09-16T12:42:04.992Z,13.03
2017-09-16T12:44:35.529Z,12.23
2017-09-16T12:47:06.620Z,11.77
2017-09-16T12:49:37.145Z,13.17
2017-09-16T12:52:07.783Z,13.80
2017-09-16T12:54:39.224Z,11.30
2017-09-16T12:57:09.718Z,12.97
2017-09-16T12:59:40.346Z,11.67
2017-09-16T13:02:13.049Z,11.93
2017-09-16T13:04:43.523Z,12.27
2017-09-16T13:07:14.181Z,8.80
2017-09-16T13:09:45.313Z,9.73
2017-09-16T13:12:16.035Z,9.50
2017-09-16T13:14:46.570Z,9.40
2017-09-16T13:17:18.453Z,8.53
2017-09-16T13:19:49.878Z,7.43
2017-09-16T13:22:21.239Z,7.10
2017-09-16T13:24:52.604Z,7.60
2017-09-16T13:27:23.880Z,7.00
2017-09-16T13:29:54.325Z,6.37
2017-09-16T13:32:25.159Z,6.00
2017-09-16T13:34:55.898Z,6.90
2017-09-16T13:37:28.690Z,6.10
2017-09-16T13:39:59.996Z,5.80
2017-09-16T13:42:30.417Z,5.43
2017-09-16T13:45:01.670Z,6.40
2017-09-16T13:47:32.362Z,5.60
2017-09-16T13:50:02.897Z,5.80
2017-09-16T13:52:36.689Z,6.03
2017-09-16T13:55:07.218Z,5.27
2017-09-16T13:57:38.222Z,6.00
2017-09-16T14:00:08.682Z,6.40
2017-09-16T14:02:40.710Z,6.13
2017-09-16T14:05:13.261Z,6.80
2017-09-16T14:07:43.939Z,6.27
2017-09-16T14:10:16.710Z,6.00
2017-09-16T14:12:48.931Z,6.33
2017-09-16T14:15:19.723Z,6.40
2017-09-16T14:17:51.110Z,6.40
2017-09-16T14:20:22.884Z,6.50
2017-09-16T14:22:54.499Z,5.90
2017-09-16T14:25:25.729Z,6.60
2017-09-16T14:27:56.205Z,6.07
2017-09-16T14:30:27.888Z,6.00
2017-09-16T14:32:58.769Z,5.37
2017-09-16T14:35:29.677Z,5.80
2017-09-16T14:38:00.361Z,5.77
2017-09-16T14:40:30.844Z,6.10
2017-09-16T14:43:01.522Z,5.33
2017-09-16T14:45:32.254Z,5.90
2017-09-16T14:48:03.570Z,5.23
2017-09-16T14:50:34.120Z,5.50
2017-09-16T14:53:04.801Z,6.50
2017-09-16T14:55:36.150Z,6.17
2017-09-16T14:58:09.120Z,6.17
2017-09-16T15:00:39.756Z,5.17
2017-09-16T15:03:10.138Z,5.57
2017-09-16T15:05:40.593Z,6.03
2017-09-16T15:08:11.046Z,5.93
2017-09-16T15:10:42.297Z,4.13
2017-09-16T15:13:12.796Z,5.27
2017-09-16T15:15:44.774Z,4.17
2017-09-16T15:18:15.826Z,4.40
2017-09-16T15:20:46.728Z,4.77
2017-09-16T15:23:18.295Z,5.20
2017-09-16T15:25:50.315Z,5.23
2017-09-16T15:28:22.220Z,5.60
2017-09-16T15:30:54.608Z,4.70
2017-09-16T15:33:27.292Z,5.07
2017-09-16T15:35:59.158Z,4.50
2017-09-16T15:38:31.027Z,4.60
2017-09-16T15:41:01.603Z,4.23
2017-09-16T15:43:32.057Z,4.57
2017-09-16T15:46:02.517Z,4.37
2017-09-16T15:48:37.712Z,5.03
2017-09-16T15:51:12.345Z,3.57
2017-09-16T15:53:43.163Z,3.77
2017-09-16T15:56:14.508Z,4.00
2017-09-16T15:58:45.321Z,4.90
2017-09-16T16:01:18.566Z,4.70
2017-09-16T16:03:49.894Z,4.07
2017-09-16T16:06:20.362Z,5.00
2017-09-16T16:08:52.458Z,4.50
2017-09-16T16:11:23.363Z,4.70
2017-09-16T16:13:53.665Z,4.10
2017-09-16T16:16:23.982Z,4.77
2017-09-16T16:19:03.437Z,4.33
2017-09-16T16:21:37.638Z,4.10
2017-09-16T16:24:08.930Z,3.47
2017-09-16T16:26:39.363Z,4.27
2017-09-16T16:29:10.291Z,3.70
2017-09-16T16:32:42.945Z,3.40
2017-09-16T16:35:13.517Z,5.03
2017-09-16T16:37:44.237Z,5.60
2017-09-16T16:40:15.349Z,5.50
2017-09-16T16:42:45.734Z,4.67
2017-09-16T16:45:16.143Z,4.47
2017-09-16T16:47:46.613Z,4.70
2017-09-16T16:50:17.212Z,4.20
2017-09-16T16:52:48.659Z,4.47
2017-09-16T16:55:19.901Z,3.00
2017-09-16T16:57:52.335Z,3.47
2017-09-16T17:00:22.881Z,3.90
2017-09-16T17:02:54.001Z,3.43
2017-09-16T17:05:24.596Z,3.50
2017-09-16T17:07:58.801Z,3.83
2017-09-16T17:10:29.980Z,4.97
2017-09-16T17:13:03.054Z,4.77
2017-09-16T17:15:33.862Z,5.03
2017-09-16T17:18:05.316Z,3.80
2017-09-16T17:20:36.875Z,4.20
2017-09-16T17:23:10.750Z,2.90
2017-09-16T17:25:41.087Z,3.40
2017-09-16T17:28:12.970Z,2.90
2017-09-16T17:30:44.209Z,2.60
2017-09-16T17:33:14.724Z,2.73
2017-09-16T17:35:45.320Z,2.60
2017-09-16T17:38:15.806Z,2.53
2017-09-16T17:40:46.840Z,3.30
2017-09-16T17:43:18.330Z,2.87
2017-09-16T17:45:48.864Z,2.63
2017-09-16T17:48:19.382Z,2.63
2017-09-16T17:50:49.666Z,2.27
2017-09-16T17:53:21.137Z,2.40
2017-09-16T17:55:52.054Z,2.30
2017-09-16T17:58:23.245Z,2.73
2017-09-16T18:00:53.684Z,2.23
2017-09-16T18:03:24.139Z,3.47
2017-09-16T18:05:55.051Z,2.20
2017-09-16T18:08:25.476Z,2.70
2017-09-16T18:10:55.966Z,2.03
2017-09-16T18:13:26.417Z,2.40
2017-09-16T18:15:56.843Z,2.90
2017-09-16T18:18:27.289Z,3.77
2017-09-16T18:20:57.971Z,5.30
2017-09-16T18:23:28.271Z,5.60
2017-09-16T18:25:58.638Z,4.77
2017-09-16T18:28:29.371Z,5.57
2017-09-16T18:30:59.954Z,8.20
2017-09-16T18:33:30.357Z,9.07
2017-09-16T18:36:00.961Z,6.93
2017-09-16T18:38:31.363Z,11.23
2017-09-16T18:41:01.757Z,9.40
2017-09-16T18:43:32.347Z,6.70
2017-09-16T18:46:02.668Z,8.20
2017-09-16T18:48:33.354Z,8.33
2017-09-16T18:51:04.213Z,11.83
2017-09-16T18:53:42.863Z,7.10
2017-09-16T18:56:13.319Z,7.10
2017-09-16T18:58:43.893Z,6.73
2017-09-16T19:01:14.528Z,6.83
2017-09-16T19:03:45.195Z,11.20
2017-09-16T19:06:15.769Z,9.53
2017-09-16T19:08:46.122Z,9.80
2017-09-16T19:11:17.260Z,13.87
2017-09-16T19:13:47.753Z,8.80
2017-09-16T19:16:18.215Z,7.70
2017-09-16T19:18:48.640Z,14.10
2017-09-16T19:21:21.166Z,10.37
2017-09-16T19:23:52.258Z,12.40
2017-09-16T19:26:22.728Z,11.33
2017-09-16T19:28:54.958Z,9.93
2017-09-16T19:31:25.801Z,10.90
2017-09-16T19:33:56.239Z,10.00
2017-09-16T19:36:26.586Z,13.83
2017-09-16T19:38:57.028Z,9.60
2017-09-16T19:41:29.235Z,7.53
2017-09-16T19:44:00.526Z,9.67
2017-09-16T19:46:31.317Z,11.93
2017-09-16T19:49:01.771Z,9.30
2017-09-16T19:51:32.530Z,7.90
2017-09-16T19:54:02.968Z,8.33
2017-09-16T19:56:34.522Z,8.73
2017-09-16T19:59:05.303Z,16.07
2017-09-16T20:01:35.730Z,12.50
2017-09-16T20:04:07.475Z,15.13
2017-09-16T20:06:38.029Z,13.87
2017-09-16T20:09:08.484Z,9.57
2017-09-16T20:11:39.246Z,11.43
2017-09-16T20:14:10.215Z,15.87
2017-09-16T20:16:40.757Z,13.67
2017-09-16T20:19:11.549Z,13.50
2017-09-16T20:21:43.082Z,13.23
2017-09-16T20:24:14.984Z,13.13
2017-09-16T20:26:45.437Z,14.97
2017-09-16T20:29:16.869Z,18.30
2017-09-16T20:31:47.499Z,17.13
2017-09-16T20:34:18.054Z,18.90
2017-09-16T20:36:48.599Z,11.03
2017-09-16T20:39:19.113Z,10.93
2017-09-16T20:41:49.580Z,15.50
2017-09-16T20:44:21.235Z,15.00
2017-09-16T20:46:52.651Z,19.33
2017-09-16T20:49:23.444Z,17.00
2017-09-16T20:51:54.226Z,16.47
2017-09-16T20:54:24.711Z,18.20
2017-09-16T20:56:55.246Z,21.00
2017-09-16T20:59:26.694Z,15.90
2017-09-16T21:01:58.181Z,15.97
2017-09-16T21:04:30.177Z,18.67
2017-09-16T21:07:01.204Z,16.30
2017-09-16T21:09:33.187Z,11.47
2017-09-16T21:12:03.699Z,15.93
2017-09-16T21:14:34.110Z,9.87
2017-09-16T21:17:06.277Z,12.57
2017-09-16T21:19:37.843Z,11.10
2017-09-16T21:22:09.442Z,9.43
2017-09-16T21:24:40.245Z,15.03
2017-09-16T21:27:10.908Z,13.40
2017-09-16T21:29:41.565Z,11.67
2017-09-16T21:32:12.354Z,8.77
2017-09-16T21:34:43.419Z,8.93
2017-09-16T21:37:14.962Z,16.17
2017-09-16T21:39:45.833Z,15.03
2017-09-16T21:42:16.898Z,13.40
2017-09-16T21:44:48.249Z,16.57
2017-09-16T21:47:20.011Z,10.13
2017-09-16T21:49:50.498Z,13.00
2017-09-16T21:52:21.036Z,13.80
2017-09-16T21:54:52.292Z,11.87
2017-09-16T21:57:24.015Z,9.97
2017-09-16T21:59:55.045Z,10.00
2017-09-16T22:02:26.287Z,10.23
2017-09-16T22:04:57.242Z,14.20
2017-09-16T22:07:27.865Z,8.80
2017-09-16T22:09:58.883Z,14.80
2017-09-16T22:12:30.094Z,12.03
2017-09-16T22:15:01.155Z,14.07
2017-09-16T22:17:31.921Z,15.53
2017-09-16T22:20:02.394Z,12.70
2017-09-16T22:22:33.346Z,8.97
2017-09-16T22:25:05.612Z,14.23
2017-09-16T22:27:37.022Z,8.37
2017-09-16T22:30:07.531Z,7.60
2017-09-16T22:32:39.185Z,8.40
2017-09-16T22:35:09.615Z,7.87
2017-09-16T22:37:40.556Z,10.80
2017-09-16T22:40:12.832Z,7.60
2017-09-16T22:42:44.330Z,9.70
2017-09-16T22:45:16.030Z,8.70
2017-09-16T22:47:46.677Z,7.43
2017-09-16T22:50:17.520Z,13.10
2017-09-16T22:52:48.300Z,9.47
2017-09-16T22:55:19.131Z,9.40
2017-09-16T22:57:50.163Z,8.87
2017-09-16T23:00:22.093Z,16.07
2017-09-16T23:02:53.937Z,9.77
2017-09-16T23:05:24.717Z,8.53
2017-09-16T23:07:55.841Z,11.80
2017-09-16T23:10:27.676Z,7.53
2017-09-16T23:12:59.094Z,6.07
2017-09-16T23:15:29.954Z,12.13
2017-09-16T23:18:00.435Z,8.00
2017-09-16T23:20:31.023Z,10.37
2017-09-16T23:23:01.727Z,8.20
2017-09-16T23:25:32.556Z,12.47
2017-09-16T23:28:02.896Z,12.80
2017-09-16T23:30:34.270Z,9.10
2017-09-16T23:33:05.245Z,9.27
2017-09-16T23:35:36.903Z,11.70
2017-09-16T23:38:07.730Z,10.80
2017-09-16T23:40:38.722Z,7.47
2017-09-16T23:43:09.420Z,7.60
2017-09-16T23:45:40.492Z,8.13
2017-09-16T23:48:11.451Z,5.80
2017-09-16T23:50:41.973Z,9.30
2017-09-16T23:53:12.693Z,7.60
2017-09-16T23:55:43.734Z,8.93
2017-09-16T23:58:14.311Z,7.13
